Time;durP1;ratioP1;P1;durP2;ratioP2;P2;SDS_P1;SDS_P2;PMS_P1;PMS_P2;Temp;Humidity;BMP_temperature;BMP_pressure;BME280_temperature;BME280_humidity;BME280_pressure;Samples;Min_cycle;Max_cycle;Signal;HPM_P1;HPM_P2
2022/09/29 00:02:17;;;;;;;3.50;0.55;;;;;;;;;;4996524;28;20045;-68
2022/09/29 00:04:44;;;;;;;1.75;0.50;;;;;;;;;;4996352;28;20556;-68
2022/09/29 00:07:11;;;;;;;1.05;0.50;;;;;;;;;;4996461;28;20054;-68
2022/09/29 00:09:38;;;;;;;1.83;0.50;;;;;;;;;;4996613;28;20022;-67
2022/09/29 00:12:06;;;;;;;2.15;0.40;;;;;;;;;;4996485;28;20029;-68
2022/09/29 00:14:34;;;;;;;1.02;0.20;;;;;;;;;;4996219;28;20509;-68
2022/09/29 00:17:01;;;;;;;0.88;0.40;;;;;;;;;;4978763;28;20033;-68
2022/09/29 00:19:28;;;;;;;1.50;0.32;;;;;;;;;;4975248;28;20058;-68
2022/09/29 00:21:56;;;;;;;3.13;0.75;;;;;;;;;;4976929;28;20030;-68
2022/09/29 00:24:23;;;;;;;1.52;0.50;;;;;;;;;;4976852;28;20049;-68
2022/09/29 00:26:50;;;;;;;4.18;0.30;;;;;;;;;;4975282;28;20030;-68
2022/09/29 00:29:17;;;;;;;1.30;0.47;;;;;;;;;;4976494;28;20081;-66
2022/09/29 00:31:44;;;;;;;1.08;0.55;;;;;;;;;;4976651;28;20061;-67
2022/09/29 00:34:11;;;;;;;2.20;0.40;;;;;;;;;;4976642;28;20026;-67
2022/09/29 00:36:40;;;;;;;3.10;0.60;;;;;;;;;;4975158;28;20550;-67
2022/09/29 00:39:07;;;;;;;2.00;0.85;;;;;;;;;;4976504;28;20046;-67
2022/09/29 00:41:36;;;;;;;1.80;0.55;;;;;;;;;;4976410;28;20034;-67
2022/09/29 00:44:15;;;;;;;2.95;1.05;;;;;;;;;;4976361;28;20070;-67
2022/09/29 00:46:45;;;;;;;4.90;0.93;;;;;;;;;;4974843;28;20391;-67
2022/09/29 00:49:12;;;;;;;3.53;1.13;;;;;;;;;;4976729;28;20097;-67
2022/09/29 00:51:41;;;;;;;4.65;1.08;;;;;;;;;;4976206;28;20022;-67
2022/09/29 00:54:09;;;;;;;4.85;1.08;;;;;;;;;;4974848;28;20455;-68
2022/09/29 00:56:38;;;;;;;5.35;1.60;;;;;;;;;;4975293;28;20027;-68
2022/09/29 00:59:08;;;;;;;2.95;0.85;;;;;;;;;;4976054;28;20038;-68
2022/09/29 01:01:35;;;;;;;6.13;1.48;;;;;;;;;;4974670;28;20078;-68
2022/09/29 01:04:14;;;;;;;4.57;0.93;;;;;;;;;;4976018;28;20026;-68
2022/09/29 01:06:43;;;;;;;6.15;1.27;;;;;;;;;;4975963;28;20364;-68
2022/09/29 01:09:14;;;;;;;2.95;1.00;;;;;;;;;;4975924;28;20115;-68
2022/09/29 01:11:41;;;;;;;2.55;1.15;;;;;;;;;;4976026;28;20035;-68
2022/09/29 01:14:09;;;;;;;3.22;1.50;;;;;;;;;;4973209;28;20070;-68
2022/09/29 01:16:40;;;;;;;3.40;1.10;;;;;;;;;;4974051;28;20027;-68
2022/09/29 01:19:37;;;;;;;5.63;1.02;;;;;;;;;;4983706;28;20038;-68
2022/09/29 01:22:07;;;;;;;1.65;0.55;;;;;;;;;;4906421;28;20049;-68
2022/09/29 01:24:37;;;;;;;1.73;0.30;;;;;;;;;;4993651;28;20500;-68
2022/09/29 01:27:09;;;;;;;2.45;0.55;;;;;;;;;;4992270;28;20105;-68
2022/09/29 01:29:54;;;;;;;1.40;0.50;;;;;;;;;;4993412;28;20023;-67
2022/09/29 01:32:22;;;;;;;1.33;0.40;;;;;;;;;;4992645;28;20019;-67
2022/09/29 01:34:55;;;;;;;2.25;0.73;;;;;;;;;;4992811;28;20054;-67
2022/09/29 01:37:22;;;;;;;1.65;0.47;;;;;;;;;;4992606;28;20543;-67
2022/09/29 01:39:58;;;;;;;1.10;0.50;;;;;;;;;;4975067;28;20033;-67
2022/09/29 01:42:29;;;;;;;2.53;0.77;;;;;;;;;;4974996;28;20038;-68
2022/09/29 01:45:12;;;;;;;2.10;0.60;;;;;;;;;;4992504;28;20057;-67
2022/09/29 01:47:46;;;;;;;2.17;1.05;;;;;;;;;;4974844;28;20022;-66
2022/09/29 01:50:24;;;;;;;2.58;0.50;;;;;;;;;;4975305;28;20109;-67
2022/09/29 01:52:57;;;;;;;1.83;0.65;;;;;;;;;;4974986;28;20026;-68
2022/09/29 01:55:28;;;;;;;2.72;0.70;;;;;;;;;;4975137;28;20514;-67
2022/09/29 01:57:58;;;;;;;2.50;0.60;;;;;;;;;;4992500;28;20505;-67
2022/09/29 02:00:30;;;;;;;2.03;0.50;;;;;;;;;;4993704;28;20054;-68
2022/09/29 02:03:02;;;;;;;3.17;0.60;;;;;;;;;;4976857;28;20026;-66
2022/09/29 02:05:36;;;;;;;1.52;0.60;;;;;;;;;;4994361;28;20097;-67
2022/09/29 02:08:16;;;;;;;2.67;0.70;;;;;;;;;;4994062;28;20018;-67
2022/09/29 02:10:58;;;;;;;2.25;0.60;;;;;;;;;;4976743;28;20057;-68
2022/09/29 02:13:25;;;;;;;0.82;0.38;;;;;;;;;;4994307;28;20030;-68
2022/09/29 02:15:54;;;;;;;2.10;0.70;;;;;;;;;;4994127;28;20379;-67
2022/09/29 02:18:29;;;;;;;2.17;0.57;;;;;;;;;;4993683;28;20046;-68
2022/09/29 02:20:56;;;;;;;2.60;0.75;;;;;;;;;;4994265;28;20042;-67
2022/09/29 02:23:23;;;;;;;2.17;0.63;;;;;;;;;;4994052;28;20030;-68
2022/09/29 02:25:51;;;;;;;2.92;0.60;;;;;;;;;;4994053;28;20431;-68
2022/09/29 02:28:19;;;;;;;3.40;1.02;;;;;;;;;;4994305;28;20027;-68
2022/09/29 02:30:46;;;;;;;2.75;0.70;;;;;;;;;;4993956;28;20032;-68
2022/09/29 02:33:21;;;;;;;3.22;0.73;;;;;;;;;;4993899;28;20022;-68
2022/09/29 02:36:06;;;;;;;2.78;0.60;;;;;;;;;;4993923;28;20065;-68
2022/09/29 02:38:34;;;;;;;4.05;0.65;;;;;;;;;;4993788;28;20394;-68
2022/09/29 02:41:21;;;;;;;5.90;1.02;;;;;;;;;;4993690;28;20046;-67
2022/09/29 02:44:10;;;;;;;3.97;0.80;;;;;;;;;;4977445;28;20069;-67
2022/09/29 02:46:44;;;;;;;7.60;1.35;;;;;;;;;;4994044;28;20090;-67
2022/09/29 02:49:25;;;;;;;6.68;0.98;;;;;;;;;;4993648;28;20034;-67
2022/09/29 02:51:57;;;;;;;5.28;1.35;;;;;;;;;;4993846;28;20394;-67
2022/09/29 02:54:24;;;;;;;7.20;1.25;;;;;;;;;;4993795;28;20023;-67
2022/09/29 02:57:10;;;;;;;5.78;1.15;;;;;;;;;;4993910;28;20026;-67
2022/09/29 02:59:44;;;;;;;4.35;1.10;;;;;;;;;;4976043;28;20395;-67
2022/09/29 03:02:11;;;;;;;4.78;1.10;;;;;;;;;;4993984;28;20089;-67
2022/09/29 03:04:38;;;;;;;3.90;0.65;;;;;;;;;;4993610;28;20034;-67
2022/09/29 03:07:05;;;;;;;4.53;0.65;;;;;;;;;;4993527;28;20434;-68
2022/09/29 03:09:33;;;;;;;5.80;1.00;;;;;;;;;;4976006;28;20022;-67
2022/09/29 03:12:00;;;;;;;4.50;0.93;;;;;;;;;;4993590;28;20022;-67
2022/09/29 03:14:27;;;;;;;6.45;1.08;;;;;;;;;;4993527;28;20391;-67
2022/09/29 03:16:54;;;;;;;3.90;0.80;;;;;;;;;;4993443;28;20153;-67
2022/09/29 03:19:21;;;;;;;4.95;1.35;;;;;;;;;;4995072;28;20053;-67
2022/09/29 03:21:49;;;;;;;4.65;0.80;;;;;;;;;;4997269;28;20022;-67
2022/09/29 03:24:16;;;;;;;6.57;0.85;;;;;;;;;;4997164;28;20597;-67
2022/09/29 03:26:43;;;;;;;1.58;0.50;;;;;;;;;;4997431;28;20034;-67
2022/09/29 03:29:11;;;;;;;4.18;0.98;;;;;;;;;;4997304;28;20014;-67
2022/09/29 03:31:39;;;;;;;3.08;0.60;;;;;;;;;;4997397;28;20096;-67
2022/09/29 03:34:07;;;;;;;3.78;0.90;;;;;;;;;;4979389;28;20026;-67
2022/09/29 03:36:34;;;;;;;4.05;0.90;;;;;;;;;;4997000;28;20053;-68
2022/09/29 03:39:01;;;;;;;8.02;1.02;;;;;;;;;;4997282;28;20057;-67
2022/09/29 03:41:28;;;;;;;8.07;1.58;;;;;;;;;;4996836;28;20081;-67
2022/09/29 03:43:55;;;;;;;7.78;1.20;;;;;;;;;;4996923;28;20101;-67
2022/09/29 03:46:22;;;;;;;6.32;1.35;;;;;;;;;;4996893;28;20023;-67
2022/09/29 03:48:50;;;;;;;7.30;0.80;;;;;;;;;;4997060;28;20069;-68
2022/09/29 03:51:17;;;;;;;5.22;1.48;;;;;;;;;;4996830;28;20022;-69
2022/09/29 03:53:44;;;;;;;2.33;0.60;;;;;;;;;;4996761;28;20026;-68
2022/09/29 03:56:11;;;;;;;3.50;0.70;;;;;;;;;;4996759;28;20034;-68
2022/09/29 03:58:38;;;;;;;6.65;0.80;;;;;;;;;;4996486;28;20030;-68
2022/09/29 04:01:06;;;;;;;5.28;0.77;;;;;;;;;;4996550;28;20026;-67
2022/09/29 04:03:33;;;;;;;6.07;1.00;;;;;;;;;;4996504;28;20161;-68
2022/09/29 04:06:00;;;;;;;3.80;1.05;;;;;;;;;;4978983;28;20030;-67
2022/09/29 04:08:27;;;;;;;5.05;0.90;;;;;;;;;;4996444;28;20030;-68
2022/09/29 04:10:55;;;;;;;3.03;0.60;;;;;;;;;;4996606;28;20385;-68
2022/09/29 04:13:22;;;;;;;5.07;1.00;;;;;;;;;;4996471;28;20018;-68
2022/09/29 04:15:49;;;;;;;5.75;1.25;;;;;;;;;;4996391;28;20030;-68
2022/09/29 04:18:16;;;;;;;7.05;1.10;;;;;;;;;;4996187;28;20046;-69
2022/09/29 04:20:44;;;;;;;6.13;1.00;;;;;;;;;;4996376;28;20026;-69
2022/09/29 04:23:12;;;;;;;4.80;0.90;;;;;;;;;;4996163;28;20077;-69
2022/09/29 04:25:39;;;;;;;5.13;1.10;;;;;;;;;;4996466;28;20030;-69
2022/09/29 04:28:06;;;;;;;9.82;1.45;;;;;;;;;;4996064;28;20022;-69
2022/09/29 04:30:34;;;;;;;9.55;1.33;;;;;;;;;;4994760;28;20428;-69
2022/09/29 04:33:01;;;;;;;10.27;2.25;;;;;;;;;;4995975;28;20386;-69
2022/09/29 04:35:28;;;;;;;7.55;1.50;;;;;;;;;;4996228;28;20118;-69
2022/09/29 04:37:59;;;;;;;6.15;1.10;;;;;;;;;;4995921;28;20097;-69
2022/09/29 04:40:26;;;;;;;7.20;1.35;;;;;;;;;;4996038;28;20022;-69
2022/09/29 04:42:53;;;;;;;6.75;1.45;;;;;;;;;;4995608;28;20030;-69
2022/09/29 04:45:20;;;;;;;6.65;1.30;;;;;;;;;;4995751;28;20054;-69
2022/09/29 04:47:47;;;;;;;6.22;1.40;;;;;;;;;;4995694;28;20018;-68
2022/09/29 04:50:15;;;;;;;7.75;1.42;;;;;;;;;;4995756;28;20072;-68
2022/09/29 04:52:43;;;;;;;4.35;1.05;;;;;;;;;;4995624;28;20024;-67
2022/09/29 04:55:10;;;;;;;5.13;0.98;;;;;;;;;;4995867;28;20108;-69
2022/09/29 04:57:38;;;;;;;4.70;1.10;;;;;;;;;;4995834;28;20195;-67
2022/09/29 05:00:06;;;;;;;3.10;0.80;;;;;;;;;;4995922;28;20463;-67
2022/09/29 05:02:34;;;;;;;4.20;0.98;;;;;;;;;;4995474;28;20028;-68
2022/09/29 05:05:01;;;;;;;4.40;1.23;;;;;;;;;;4995407;28;20040;-67
2022/09/29 05:07:29;;;;;;;5.57;1.20;;;;;;;;;;4995366;28;20022;-67
2022/09/29 05:09:56;;;;;;;4.13;1.20;;;;;;;;;;4977681;28;20393;-67
2022/09/29 05:12:23;;;;;;;4.85;1.20;;;;;;;;;;4977857;28;20094;-66
2022/09/29 05:14:50;;;;;;;5.28;1.63;;;;;;;;;;4995466;28;20470;-67
2022/09/29 05:17:17;;;;;;;6.50;1.83;;;;;;;;;;4995136;28;20486;-68
2022/09/29 05:19:45;;;;;;;6.75;1.52;;;;;;;;;;4994911;28;20117;-68
2022/09/29 05:22:12;;;;;;;5.65;1.30;;;;;;;;;;4995130;28;20030;-67
2022/09/29 05:24:39;;;;;;;7.22;1.33;;;;;;;;;;4977239;28;20072;-69
2022/09/29 05:27:06;;;;;;;8.85;1.83;;;;;;;;;;4994945;28;20038;-69
2022/09/29 05:29:33;;;;;;;13.57;3.20;;;;;;;;;;4995029;28;20032;-69
2022/09/29 05:32:01;;;;;;;14.55;2.67;;;;;;;;;;4995082;28;20029;-68
2022/09/29 05:34:28;;;;;;;14.95;2.53;;;;;;;;;;4977388;28;20423;-68
2022/09/29 05:36:55;;;;;;;12.48;2.00;;;;;;;;;;4995115;28;20110;-68
2022/09/29 05:39:22;;;;;;;13.73;2.47;;;;;;;;;;4994621;28;20019;-68
2022/09/29 05:41:49;;;;;;;14.38;2.60;;;;;;;;;;4994397;28;20076;-69
2022/09/29 05:44:16;;;;;;;14.30;1.70;;;;;;;;;;4977047;28;20113;-69
2022/09/29 05:46:44;;;;;;;12.07;1.73;;;;;;;;;;4994541;28;20030;-68
2022/09/29 05:49:11;;;;;;;12.20;2.15;;;;;;;;;;4994592;28;20394;-69
2022/09/29 05:51:38;;;;;;;9.95;1.58;;;;;;;;;;4994569;28;20382;-68
2022/09/29 05:54:05;;;;;;;12.85;1.85;;;;;;;;;;4994605;28;20026;-68
2022/09/29 05:56:32;;;;;;;9.10;1.20;;;;;;;;;;4994493;28;20105;-68
2022/09/29 05:59:00;;;;;;;13.80;1.40;;;;;;;;;;4976992;28;20076;-68
2022/09/29 06:01:27;;;;;;;9.07;1.67;;;;;;;;;;4994376;28;20022;-68
2022/09/29 06:03:55;;;;;;;11.48;2.30;;;;;;;;;;4976814;28;20108;-68
2022/09/29 06:06:26;;;;;;;9.40;1.85;;;;;;;;;;4994099;28;20032;-68
2022/09/29 06:08:54;;;;;;;6.50;1.33;;;;;;;;;;4976875;28;20052;-69
2022/09/29 06:11:23;;;;;;;12.75;1.85;;;;;;;;;;4994010;28;20368;-69
2022/09/29 06:13:51;;;;;;;9.45;1.27;;;;;;;;;;4994111;28;20438;-69
2022/09/29 06:16:19;;;;;;;8.25;1.20;;;;;;;;;;4993986;28;20317;-69
2022/09/29 06:18:47;;;;;;;6.80;1.67;;;;;;;;;;4976313;28;20407;-69
2022/09/29 06:21:17;;;;;;;8.90;1.58;;;;;;;;;;4993889;28;20034;-70
2022/09/29 06:23:44;;;;;;;6.68;1.88;;;;;;;;;;4994044;28;20113;-69
2022/09/29 06:26:13;;;;;;;12.43;1.83;;;;;;;;;;4993759;28;20153;-68
2022/09/29 06:28:40;;;;;;;9.15;1.50;;;;;;;;;;4994000;28;20089;-69
2022/09/29 06:31:08;;;;;;;7.30;1.27;;;;;;;;;;4993887;28;20040;-69
2022/09/29 06:33:36;;;;;;;10.68;1.85;;;;;;;;;;4994050;28;20101;-69
2022/09/29 06:38:51;;;;;;;11.93;2.33;;;;;;;;;;4993852;28;20041;-69
2022/09/29 06:41:19;;;;;;;10.93;1.50;;;;;;;;;;4993716;28;20101;-69
2022/09/29 06:43:46;;;;;;;9.15;2.03;;;;;;;;;;4993627;28;20026;-69
2022/09/29 06:46:13;;;;;;;9.30;1.65;;;;;;;;;;4975968;28;20038;-68
2022/09/29 06:48:41;;;;;;;11.38;1.90;;;;;;;;;;4993663;28;20368;-70
2022/09/29 06:51:08;;;;;;;12.63;2.00;;;;;;;;;;4993511;28;20451;-68
2022/09/29 06:53:36;;;;;;;11.07;2.22;;;;;;;;;;4992619;28;20023;-68
2022/09/29 06:56:03;;;;;;;11.23;2.47;;;;;;;;;;4993573;28;20030;-69
2022/09/29 06:58:30;;;;;;;12.10;2.15;;;;;;;;;;4993552;28;20455;-70
2022/09/29 07:01:00;;;;;;;14.23;2.55;;;;;;;;;;4993779;28;20026;-70
2022/09/29 07:03:28;;;;;;;14.23;2.17;;;;;;;;;;4993519;28;20032;-71
2022/09/29 07:05:55;;;;;;;14.30;2.30;;;;;;;;;;4993347;28;20367;-68
2022/09/29 07:08:23;;;;;;;15.07;3.08;;;;;;;;;;4993719;28;20088;-68
2022/09/29 07:10:50;;;;;;;15.93;2.35;;;;;;;;;;4993482;28;20022;-69
2022/09/29 07:13:17;;;;;;;15.27;2.90;;;;;;;;;;4993425;28;20022;-69
2022/09/29 07:15:46;;;;;;;16.20;2.85;;;;;;;;;;4993367;28;20026;-69
2022/09/29 07:18:14;;;;;;;19.55;3.08;;;;;;;;;;4993179;28;20490;-69
2022/09/29 07:20:41;;;;;;;20.52;2.88;;;;;;;;;;4975948;28;20049;-69
2022/09/29 07:23:08;;;;;;;19.33;4.38;;;;;;;;;;4975738;28;20128;-68
2022/09/29 07:25:36;;;;;;;18.23;3.72;;;;;;;;;;4993587;28;20093;-69
2022/09/29 07:28:03;;;;;;;22.17;3.10;;;;;;;;;;4993236;28;20022;-68
2022/09/29 07:30:30;;;;;;;19.27;3.38;;;;;;;;;;4993481;28;20023;-68
2022/09/29 07:32:57;;;;;;;21.50;4.07;;;;;;;;;;4993284;28;20042;-69
2022/09/29 07:35:25;;;;;;;24.85;3.95;;;;;;;;;;4993276;28;20034;-68
2022/09/29 07:37:55;;;;;;;28.98;5.10;;;;;;;;;;4993259;28;20031;-70
2022/09/29 07:40:23;;;;;;;22.50;4.15;;;;;;;;;;4993308;28;20036;-68
2022/09/29 07:42:50;;;;;;;24.85;4.47;;;;;;;;;;4975588;28;20513;-69
2022/09/29 07:45:18;;;;;;;22.80;4.32;;;;;;;;;;4975584;28;20057;-70
2022/09/29 07:47:45;;;;;;;24.63;4.22;;;;;;;;;;4992483;28;20414;-69
2022/09/29 07:50:13;;;;;;;24.48;4.18;;;;;;;;;;4991882;28;20023;-70
2022/09/29 07:52:40;;;;;;;20.20;3.53;;;;;;;;;;4991213;28;20102;-70
2022/09/29 07:55:07;;;;;;;20.00;3.65;;;;;;;;;;4991997;28;20073;-69
2022/09/29 07:57:35;;;;;;;23.02;4.57;;;;;;;;;;4974362;28;20030;-69
2022/09/29 08:00:02;;;;;;;12.88;2.80;;;;;;;;;;4991058;28;20509;-68
2022/09/29 08:02:29;;;;;;;20.40;3.45;;;;;;;;;;4991105;28;20132;-69
2022/09/29 08:04:56;;;;;;;14.25;3.17;;;;;;;;;;4976169;28;20022;-71
2022/09/29 08:07:23;;;;;;;16.77;2.97;;;;;;;;;;4996122;28;20471;-69
2022/09/29 08:09:50;;;;;;;16.13;3.35;;;;;;;;;;4978830;28;20044;-69
2022/09/29 08:12:18;;;;;;;21.30;3.42;;;;;;;;;;4996761;28;20445;-68
2022/09/29 08:14:45;;;;;;;14.15;3.65;;;;;;;;;;4996411;28;20394;-69
2022/09/29 08:17:12;;;;;;;18.15;3.38;;;;;;;;;;4996480;28;20022;-69
2022/09/29 08:19:39;;;;;;;17.83;3.42;;;;;;;;;;4995947;28;20053;-69
2022/09/29 08:22:07;;;;;;;18.67;3.08;;;;;;;;;;4995529;28;20053;-69
2022/09/29 08:24:35;;;;;;;21.38;3.47;;;;;;;;;;4978678;28;20030;-69
2022/09/29 08:27:05;;;;;;;16.77;3.28;;;;;;;;;;4996208;28;20023;-68
2022/09/29 08:29:33;;;;;;;17.17;3.78;;;;;;;;;;4996302;28;20014;-69
2022/09/29 08:32:00;;;;;;;16.05;3.60;;;;;;;;;;4996293;28;20383;-68
2022/09/29 08:34:28;;;;;;;15.35;3.50;;;;;;;;;;4995647;28;20019;-68
2022/09/29 08:36:55;;;;;;;19.98;4.43;;;;;;;;;;4996027;28;20027;-68
2022/09/29 08:39:22;;;;;;;14.73;3.45;;;;;;;;;;4978589;28;20034;-69
2022/09/29 08:41:54;;;;;;;15.25;3.08;;;;;;;;;;4996088;28;20022;-68
2022/09/29 08:44:24;;;;;;;16.13;3.45;;;;;;;;;;4978450;28;20402;-68
2022/09/29 08:47:09;;;;;;;20.05;3.92;;;;;;;;;;4996031;28;20482;-68
2022/09/29 08:49:42;;;;;;;18.42;4.10;;;;;;;;;;4996481;28;20471;-67
2022/09/29 08:52:12;;;;;;;18.80;4.45;;;;;;;;;;4996076;28;20480;-69
2022/09/29 08:54:44;;;;;;;13.75;3.13;;;;;;;;;;4995831;28;20022;-68
2022/09/29 08:57:18;;;;;;;14.52;3.17;;;;;;;;;;4995741;28;20084;-67
2022/09/29 08:59:56;;;;;;;14.90;3.53;;;;;;;;;;4978235;28;20026;-67
2022/09/29 09:02:42;;;;;;;13.85;2.60;;;;;;;;;;4978224;28;20026;-68
2022/09/29 09:05:35;;;;;;;15.00;3.22;;;;;;;;;;4995619;28;20026;-68
2022/09/29 09:08:02;;;;;;;13.38;2.72;;;;;;;;;;4991558;28;20053;-67
2022/09/29 09:10:34;;;;;;;15.60;2.42;;;;;;;;;;4995369;28;20101;-68
2022/09/29 09:13:04;;;;;;;12.77;2.78;;;;;;;;;;4995314;28;20081;-67
2022/09/29 09:15:57;;;;;;;15.15;2.70;;;;;;;;;;4977735;28;20109;-66
2022/09/29 09:18:43;;;;;;;12.73;2.42;;;;;;;;;;4995100;28;20046;-67
2022/09/29 09:21:15;;;;;;;12.77;3.25;;;;;;;;;;4977767;28;20022;-67
2022/09/29 09:23:49;;;;;;;15.52;3.67;;;;;;;;;;4977706;28;20053;-68
2022/09/29 09:26:17;;;;;;;15.77;3.70;;;;;;;;;;4995083;28;20034;-67
2022/09/29 09:28:49;;;;;;;15.93;4.40;;;;;;;;;;4995049;28;20605;-67
2022/09/29 09:31:35;;;;;;;19.73;3.90;;;;;;;;;;4995236;28;20390;-68
2022/09/29 09:34:08;;;;;;;18.58;4.25;;;;;;;;;;4977636;28;20029;-68
2022/09/29 09:36:38;;;;;;;18.00;3.47;;;;;;;;;;4995025;28;20033;-68
2022/09/29 09:39:12;;;;;;;18.63;4.07;;;;;;;;;;4977473;28;20450;-68
2022/09/29 09:41:40;;;;;;;15.75;3.30;;;;;;;;;;4994845;28;20447;-67
2022/09/29 09:44:07;;;;;;;18.90;3.72;;;;;;;;;;4994862;28;20034;-68
2022/09/29 09:46:43;;;;;;;17.88;3.45;;;;;;;;;;4994656;28;20399;-67
2022/09/29 09:49:29;;;;;;;14.40;2.70;;;;;;;;;;4994718;28;20022;-68
2022/09/29 09:52:04;;;;;;;16.13;3.03;;;;;;;;;;4994906;28;20466;-68
2022/09/29 09:54:46;;;;;;;14.13;2.17;;;;;;;;;;4994710;28;20022;-68
2022/09/29 09:57:25;;;;;;;15.57;3.38;;;;;;;;;;4994645;28;20479;-68
2022/09/29 10:00:12;;;;;;;17.48;3.85;;;;;;;;;;4994523;28;20050;-67
2022/09/29 10:02:43;;;;;;;12.70;3.45;;;;;;;;;;4994484;28;20395;-67
2022/09/29 10:05:18;;;;;;;14.43;3.15;;;;;;;;;;4994651;28;20185;-69
2022/09/29 10:07:47;;;;;;;14.13;3.50;;;;;;;;;;4976693;28;20034;-68
2022/09/29 10:10:16;;;;;;;13.98;2.83;;;;;;;;;;4994306;28;20022;-68
2022/09/29 10:12:44;;;;;;;18.65;3.22;;;;;;;;;;4994169;28;20018;-67
2022/09/29 10:15:20;;;;;;;17.08;3.53;;;;;;;;;;4976645;28;20367;-68
2022/09/29 10:17:50;;;;;;;15.00;2.63;;;;;;;;;;4993913;28;20364;-68
2022/09/29 10:20:29;;;;;;;15.00;3.05;;;;;;;;;;4994441;28;20026;-67
2022/09/29 10:23:16;;;;;;;18.67;3.47;;;;;;;;;;4994412;28;20026;-67
2022/09/29 10:25:51;;;;;;;13.38;3.30;;;;;;;;;;4993837;28;20087;-68
2022/09/29 10:28:18;;;;;;;15.63;3.10;;;;;;;;;;4994078;28;20066;-68
2022/09/29 10:30:45;;;;;;;17.02;3.15;;;;;;;;;;4976455;28;20482;-67
2022/09/29 10:33:18;;;;;;;20.38;3.28;;;;;;;;;;4994136;28;20079;-67
2022/09/29 10:35:47;;;;;;;16.50;2.55;;;;;;;;;;4976528;28;20022;-68
2022/09/29 10:38:18;;;;;;;19.73;4.35;;;;;;;;;;4994251;28;20022;-68
2022/09/29 10:40:57;;;;;;;13.90;2.83;;;;;;;;;;4993797;28;20022;-68
2022/09/29 10:43:26;;;;;;;11.20;2.83;;;;;;;;;;4993745;28;20433;-68
2022/09/29 10:45:57;;;;;;;15.98;2.83;;;;;;;;;;4993721;28;20027;-68
2022/09/29 10:48:24;;;;;;;;;;;;;;;;;;4994386;28;20471;-68
2022/09/29 10:50:56;;;;;;;12.27;2.50;;;;;;;;;;4994173;28;19905;-69
2022/09/29 10:53:23;;;;;;;15.15;2.78;;;;;;;;;;4976274;28;20096;-69
2022/09/29 10:55:52;;;;;;;11.65;2.15;;;;;;;;;;4976293;28;20045;-68
2022/09/29 10:58:29;;;;;;;16.33;3.50;;;;;;;;;;4993733;28;20390;-68
2022/09/29 11:01:06;;;;;;;14.20;2.50;;;;;;;;;;4993865;28;20023;-68
2022/09/29 11:03:34;;;;;;;13.88;3.22;;;;;;;;;;4976222;28;20026;-68
2022/09/29 11:06:12;;;;;;;15.23;3.72;;;;;;;;;;4993919;28;20023;-68
2022/09/29 11:08:56;;;;;;;15.23;3.45;;;;;;;;;;4993600;28;20022;-68
2022/09/29 11:11:34;;;;;;;14.20;3.20;;;;;;;;;;4993621;28;20426;-67
2022/09/29 11:14:01;;;;;;;19.52;3.22;;;;;;;;;;4993615;28;20026;-68
2022/09/29 11:16:28;;;;;;;21.15;3.22;;;;;;;;;;4976065;28;20427;-68
2022/09/29 11:18:59;;;;;;;16.13;3.58;;;;;;;;;;4993324;28;20406;-68
2022/09/29 11:21:44;;;;;;;18.58;3.13;;;;;;;;;;4993861;28;20077;-68
2022/09/29 11:24:24;;;;;;;16.42;3.72;;;;;;;;;;4992460;28;20034;-68
2022/09/29 11:27:00;;;;;;;21.45;3.85;;;;;;;;;;4991842;28;20506;-68
2022/09/29 11:29:41;;;;;;;13.77;2.30;;;;;;;;;;4975099;28;20031;-69
2022/09/29 11:32:21;;;;;;;16.15;2.75;;;;;;;;;;4992498;28;20382;-68
2022/09/29 11:34:51;;;;;;;14.90;2.67;;;;;;;;;;4975333;28;20110;-68
2022/09/29 11:37:21;;;;;;;19.42;3.67;;;;;;;;;;4993333;28;20031;-68
2022/09/29 11:40:08;;;;;;;14.25;3.03;;;;;;;;;;4993496;28;20034;-69
2022/09/29 11:42:41;;;;;;;17.27;2.97;;;;;;;;;;4997064;28;20023;-68
2022/09/29 11:45:17;;;;;;;17.52;3.10;;;;;;;;;;4997030;28;20026;-68
2022/09/29 11:47:59;;;;;;;14.70;2.80;;;;;;;;;;4997115;28;20029;-69
2022/09/29 11:50:32;;;;;;;11.27;2.42;;;;;;;;;;4996901;28;20494;-68
2022/09/29 11:53:04;;;;;;;15.27;3.28;;;;;;;;;;4979251;28;20037;-68
2022/09/29 11:55:32;;;;;;;12.23;2.67;;;;;;;;;;4995444;28;20018;-68
2022/09/29 11:58:10;;;;;;;18.25;3.58;;;;;;;;;;4994795;28;20027;-68
2022/09/29 12:00:40;;;;;;;23.48;3.65;;;;;;;;;;4994686;28;20018;-70
2022/09/29 12:03:16;;;;;;;16.27;3.00;;;;;;;;;;4994713;28;20038;-69
2022/09/29 12:06:02;;;;;;;14.60;2.92;;;;;;;;;;4994547;28;20041;-68
2022/09/29 12:08:32;;;;;;;16.75;3.05;;;;;;;;;;4994637;28;20064;-69
2022/09/29 12:11:28;;;;;;;12.13;2.83;;;;;;;;;;4995911;28;20057;-69
2022/09/29 12:13:58;;;;;;;13.50;2.53;;;;;;;;;;4959069;28;20261;-68
2022/09/29 12:16:31;;;;;;;14.88;3.25;;;;;;;;;;4996397;28;20034;-69
2022/09/29 12:19:24;;;;;;;13.35;2.67;;;;;;;;;;4996045;28;20521;-68
2022/09/29 12:21:54;;;;;;;15.90;3.13;;;;;;;;;;4992362;28;20034;-68
2022/09/29 12:24:40;;;;;;;13.73;3.13;;;;;;;;;;4996311;28;20026;-68
2022/09/29 12:27:10;;;;;;;15.25;3.13;;;;;;;;;;4996157;28;20069;-68
2022/09/29 12:29:39;;;;;;;10.52;2.13;;;;;;;;;;4996475;28;20046;-68
2022/09/29 12:32:14;;;;;;;15.88;2.75;;;;;;;;;;4996075;28;20138;-69
2022/09/29 12:34:59;;;;;;;9.55;2.28;;;;;;;;;;4978525;28;20027;-69
2022/09/29 12:37:48;;;;;;;17.23;2.83;;;;;;;;;;4996238;28;20022;-70
2022/09/29 12:40:18;;;;;;;15.15;2.60;;;;;;;;;;4996205;28;20037;-70
2022/09/29 12:42:59;;;;;;;17.67;2.90;;;;;;;;;;4995918;28;20022;-69
2022/09/29 12:45:28;;;;;;;12.15;2.22;;;;;;;;;;4996215;28;20367;-70
2022/09/29 12:48:01;;;;;;;10.57;2.35;;;;;;;;;;4978259;28;20039;-70
2022/09/29 12:50:30;;;;;;;14.25;2.58;;;;;;;;;;4995774;28;20015;-71
2022/09/29 12:53:23;;;;;;;11.88;1.85;;;;;;;;;;4977530;28;20018;-70
2022/09/29 12:55:51;;;;;;;13.75;2.90;;;;;;;;;;4942389;28;20046;-70
2022/09/29 12:58:39;;;;;;;17.17;2.90;;;;;;;;;;4995914;28;20023;-71
2022/09/29 13:01:26;;;;;;;11.35;2.17;;;;;;;;;;4995760;28;20029;-71
2022/09/29 13:04:03;;;;;;;14.00;2.53;;;;;;;;;;4978132;28;20072;-71
2022/09/29 13:06:48;;;;;;;14.45;2.67;;;;;;;;;;4995528;28;20022;-70
2022/09/29 13:09:25;;;;;;;11.43;2.50;;;;;;;;;;4977903;28;20022;-70
2022/09/29 13:12:02;;;;;;;13.88;2.78;;;;;;;;;;4995397;28;20025;-70
2022/09/29 13:14:57;;;;;;;16.20;3.08;;;;;;;;;;4995580;28;20019;-70
2022/09/29 13:17:30;;;;;;;16.77;2.50;;;;;;;;;;4977718;28;20038;-70
2022/09/29 13:20:15;;;;;;;10.48;2.70;;;;;;;;;;4995133;28;20050;-70
2022/09/29 13:22:52;;;;;;;17.10;3.20;;;;;;;;;;4995425;28;20093;-70
2022/09/29 13:25:22;;;;;;;16.13;2.97;;;;;;;;;;4995055;28;20050;-70
2022/09/29 13:27:52;;;;;;;14.43;2.78;;;;;;;;;;4994868;28;20027;-70
2022/09/29 13:30:38;;;;;;;20.35;3.50;;;;;;;;;;4995203;28;20026;-70
2022/09/29 13:33:16;;;;;;;17.15;3.20;;;;;;;;;;4995069;28;20077;-70
2022/09/29 13:35:44;;;;;;;14.00;2.95;;;;;;;;;;4977535;28;20022;-70
2022/09/29 13:38:31;;;;;;;13.68;2.72;;;;;;;;;;4994952;28;20570;-70
2022/09/29 13:41:37;;;;;;;18.45;2.72;;;;;;;;;;4994743;28;20098;-70
2022/09/29 13:44:06;;;;;;;12.18;2.53;;;;;;;;;;4977323;28;20030;-71
2022/09/29 13:46:33;;;;;;;10.77;2.30;;;;;;;;;;4994646;28;20030;-70
2022/09/29 13:49:12;;;;;;;10.60;2.55;;;;;;;;;;4994804;28;20093;-70
2022/09/29 13:51:42;;;;;;;11.43;2.50;;;;;;;;;;4994635;28;20032;-71
2022/09/29 13:54:22;;;;;;;17.85;3.15;;;;;;;;;;4994674;28;20030;-70
2022/09/29 13:56:58;;;;;;;14.73;2.72;;;;;;;;;;4994749;28;20533;-70
2022/09/29 13:59:27;;;;;;;13.82;2.63;;;;;;;;;;4994409;28;20033;-70
2022/09/29 14:01:54;;;;;;;16.10;2.65;;;;;;;;;;4994375;28;20022;-70
2022/09/29 14:04:33;;;;;;;13.57;2.60;;;;;;;;;;4976539;28;20088;-71
2022/09/29 14:07:05;;;;;;;18.65;3.20;;;;;;;;;;4994568;28;20391;-71
2022/09/29 14:09:35;;;;;;;16.10;3.00;;;;;;;;;;4994577;28;20023;-71
2022/09/29 14:12:05;;;;;;;18.15;3.00;;;;;;;;;;4994704;28;20066;-71
2022/09/29 14:14:38;;;;;;;12.30;2.33;;;;;;;;;;4994228;28;20023;-71
2022/09/29 14:17:17;;;;;;;13.73;2.55;;;;;;;;;;4994266;28;20022;-71
2022/09/29 14:20:03;;;;;;;16.25;3.45;;;;;;;;;;4994416;28;20487;-71
2022/09/29 14:22:30;;;;;;;14.57;2.25;;;;;;;;;;4976771;28;20026;-71
2022/09/29 14:25:10;;;;;;;16.40;3.10;;;;;;;;;;4994025;28;20153;-71
2022/09/29 14:27:48;;;;;;;20.35;3.42;;;;;;;;;;4994278;28;20029;-71
2022/09/29 14:30:16;;;;;;;12.32;2.53;;;;;;;;;;4994424;28;20130;-70
2022/09/29 14:32:46;;;;;;;11.65;2.60;;;;;;;;;;4994120;28;20072;-70
2022/09/29 14:35:13;;;;;;;;;;;;;;;;;;4994358;28;20025;-70
2022/09/29 14:37:40;;;;;;;16.00;2.17;;;;;;;;;;4994231;28;20366;-70
2022/09/29 14:43:03;;;;;;;15.27;2.28;;;;;;;;;;4993970;28;20033;-70
2022/09/29 14:54:07;;;;;;;13.35;2.55;;;;;;;;;;4993804;28;20406;-70
2022/09/29 14:56:41;;;;;;;14.25;2.67;;;;;;;;;;4993936;28;20041;-70
2022/09/29 14:59:17;;;;;;;11.52;2.25;;;;;;;;;;4993922;28;20038;-70
2022/09/29 15:02:20;;;;;;;12.38;2.50;;;;;;;;;;4993936;28;20040;-70
2022/09/29 15:04:48;;;;;;;13.43;2.42;;;;;;;;;;4880244;29;20551;-70
2022/09/29 15:07:25;;;;;;;11.10;2.28;;;;;;;;;;4976084;28;20461;-70
2022/09/29 15:09:57;;;;;;;11.98;1.80;;;;;;;;;;4993751;28;20023;-70
2022/09/29 15:12:30;;;;;;;12.32;2.08;;;;;;;;;;4976120;28;20372;-71
2022/09/29 15:14:58;;;;;;;9.55;2.00;;;;;;;;;;4995010;28;20042;-69
2022/09/29 15:17:43;;;;;;;10.07;2.03;;;;;;;;;;4997498;28;20030;-70